Time;durP1;ratioP1;P1;durP2;ratioP2;P2;SDS_P1;SDS_P2;PMS_P1;PMS_P2;Temp;Humidity;BMP_temperature;BMP_pressure;BME280_temperature;BME280_humidity;BME280_pressure;Samples;Min_cycle;Max_cycle;Signal;HPM_P1;HPM_P2
2022/09/21 00:01:15;;;;;;;2.88;2.40;;;;;;;13.98;62.54;102070.91;5052629;27;96872;-68
2022/09/21 00:03:44;;;;;;;3.97;2.30;;;;;;;14.09;62.31;102071.47;5050403;27;99998;-68
2022/09/21 00:06:17;;;;;;;5.55;2.33;;;;;;;13.98;62.53;102073.56;5049281;27;99344;-68
2022/09/21 00:08:46;;;;;;;4.47;2.80;;;;;;;13.85;63.22;102073.88;5053795;27;96863;-68
2022/09/21 00:11:14;;;;;;;2.78;2.33;;;;;;;14.08;62.31;102083.00;5054682;27;97284;-68
2022/09/21 00:13:48;;;;;;;5.13;2.70;;;;;;;14.13;62.33;102078.41;5052978;27;98976;-68
2022/09/21 00:16:18;;;;;;;3.70;2.85;;;;;;;13.82;62.59;102079.31;5049999;27;98820;-68
2022/09/21 00:18:47;;;;;;;4.15;2.53;;;;;;;13.95;62.56;102077.16;5053672;27;98825;-69
2022/09/21 00:21:15;;;;;;;5.35;2.38;;;;;;;14.12;62.27;102076.66;5056692;27;97525;-68
2022/09/21 00:23:44;;;;;;;6.90;3.15;;;;;;;14.14;62.22;102080.16;5053127;27;99191;-68
2022/09/21 00:26:13;;;;;;;5.53;2.50;;;;;;;14.17;62.18;102080.09;5057205;27;100549;-68
2022/09/21 00:28:40;;;;;;;4.03;2.60;;;;;;;13.96;62.76;102076.25;5056665;27;97100;-68
2022/09/21 00:31:09;;;;;;;4.13;2.63;;;;;;;14.21;61.75;102076.41;5056327;27;96866;-68
2022/09/21 00:33:36;;;;;;;3.20;2.60;;;;;;;14.03;62.76;102074.28;5056305;27;98922;-68
2022/09/21 00:36:06;;;;;;;3.38;2.40;;;;;;;13.99;62.63;102076.16;5055899;27;99249;-68
2022/09/21 00:38:35;;;;;;;3.70;2.53;;;;;;;14.06;62.41;102077.72;5056844;27;97413;-68
2022/09/21 00:41:05;;;;;;;4.13;3.00;;;;;;;14.15;62.34;102076.59;5055163;27;96794;-68
2022/09/21 00:43:33;;;;;;;5.78;2.80;;;;;;;14.09;62.02;102080.31;5054481;27;97435;-68
2022/09/21 00:46:11;;;;;;;6.40;2.55;;;;;;;14.16;61.52;102083.66;5055896;27;101353;-69
2022/09/21 00:48:37;;;;;;;2.80;2.45;;;;;;;13.77;62.88;102081.22;5053986;27;98066;-68
2022/09/21 00:51:07;;;;;;;4.72;2.15;;;;;;;13.89;62.55;102080.88;5057641;27;97936;-67
2022/09/21 00:53:36;;;;;;;3.80;2.40;;;;;;;14.11;62.04;102091.75;5054767;27;99039;-68
2022/09/21 00:56:05;;;;;;;2.88;2.42;;;;;;;14.12;61.88;102087.28;5054618;27;99938;-69
2022/09/21 00:58:39;;;;;;;3.05;2.38;;;;;;;14.14;61.79;102085.47;5057456;27;96763;-69
2022/09/21 01:01:07;;;;;;;4.72;2.55;;;;;;;13.93;62.12;102087.84;5055637;27;96879;-68
2022/09/21 01:03:36;;;;;;;10.73;5.95;;;;;;;14.28;61.47;102091.25;5055087;27;98347;-68
2022/09/21 01:06:03;;;;;;;7.80;2.90;;;;;;;14.25;61.14;102094.88;5054972;27;99113;-68
2022/09/21 01:08:33;;;;;;;2.83;2.30;;;;;;;14.22;60.84;102084.34;5054658;27;96724;-68
2022/09/21 01:11:24;;;;;;;4.10;2.42;;;;;;;14.10;61.48;102095.34;5056095;27;97361;-67
2022/09/21 01:14:08;;;;;;;5.97;2.53;;;;;;;13.94;61.96;102091.38;5052022;27;98936;-69
2022/09/21 01:16:43;;;;;;;3.53;2.20;;;;;;;13.66;62.79;102088.59;5053387;27;99337;-69
2022/09/21 01:19:25;;;;;;;6.07;2.08;;;;;;;13.70;62.81;102092.91;5054869;27;97157;-69
2022/09/21 01:21:57;;;;;;;4.07;2.50;;;;;;;13.57;62.99;102087.06;5051262;27;98764;-69
2022/09/21 01:25:03;;;;;;;3.85;2.25;;;;;;;13.62;63.18;102094.03;5051442;27;97766;-67
2022/09/21 01:27:49;;;;;;;5.65;2.22;;;;;;;13.55;63.15;102093.31;4992513;28;98812;-70
2022/09/21 01:30:22;;;;;;;2.83;2.00;;;;;;;13.56;63.44;102098.59;5049137;27;96858;-71
2022/09/21 01:32:56;;;;;;;3.22;2.33;;;;;;;13.57;63.44;102094.16;5051536;27;98654;-68
2022/09/21 01:35:27;;;;;;;5.03;2.42;;;;;;;13.38;64.15;102099.09;5051471;27;99098;-70
2022/09/21 01:37:58;;;;;;;3.83;2.00;;;;;;;13.47;63.75;102097.97;5054090;27;99432;-70
2022/09/21 01:40:31;;;;;;;4.10;2.10;;;;;;;13.64;63.22;102106.38;5056730;27;97191;-69
2022/09/21 01:42:59;;;;;;;2.63;2.08;;;;;;;13.66;62.74;102107.19;5054580;27;96952;-68
2022/09/21 01:45:31;;;;;;;5.25;2.10;;;;;;;13.63;63.14;102104.63;5053832;27;99348;-69
2022/09/21 01:48:02;;;;;;;6.85;2.35;;;;;;;13.87;62.26;102114.56;5054064;27;98934;-70
2022/09/21 01:50:34;;;;;;;4.60;2.10;;;;;;;13.64;62.71;102100.19;5056359;27;96756;-69
2022/09/21 01:53:05;;;;;;;2.88;2.17;;;;;;;13.61;63.24;102102.91;5053210;27;96932;-67
2022/09/21 01:55:38;;;;;;;4.53;2.40;;;;;;;13.60;62.94;102104.69;5055012;27;99350;-69
2022/09/21 01:58:11;;;;;;;3.08;2.30;;;;;;;13.41;64.03;102114.03;5055553;27;98933;-67
2022/09/21 02:00:42;;;;;;;3.60;1.98;;;;;;;13.52;63.28;102112.84;5053337;27;96805;-67
2022/09/21 02:03:13;;;;;;;5.60;2.25;;;;;;;13.53;63.02;102108.41;5052661;27;97460;-68
2022/09/21 02:05:41;;;;;;;2.95;2.10;;;;;;;13.44;63.69;102108.66;5051616;27;100508;-68
2022/09/21 02:08:09;;;;;;;2.88;1.70;;;;;;;13.37;64.23;102107.09;5054738;27;100548;-68
2022/09/21 02:10:39;;;;;;;3.00;2.13;;;;;;;13.32;64.22;102101.03;5051608;27;99363;-68
2022/09/21 02:13:08;;;;;;;2.97;2.10;;;;;;;13.43;63.82;102107.78;5054530;27;96899;-69
2022/09/21 02:15:51;;;;;;;4.20;2.30;;;;;;;13.29;64.04;102103.75;5048094;27;99582;-69
2022/09/21 02:18:27;;;;;;;4.55;2.25;;;;;;;13.28;64.18;102102.00;5049272;27;99086;-68
2022/09/21 02:20:59;;;;;;;4.05;2.03;;;;;;;13.45;63.34;102107.75;5054053;27;96869;-68
2022/09/21 02:23:32;;;;;;;3.80;2.50;;;;;;;13.55;62.57;102103.94;5054227;27;97348;-68
2022/09/21 02:26:07;;;;;;;4.45;2.58;;;;;;;13.34;62.73;102101.84;5054508;27;102011;-68
2022/09/21 02:28:42;;;;;;;4.75;2.20;;;;;;;13.24;63.05;102105.66;5053450;27;99063;-68
2022/09/21 02:31:16;;;;;;;5.57;2.60;;;;;;;13.23;63.67;102104.78;5052585;27;96895;-67
2022/09/21 02:33:52;;;;;;;2.25;1.83;;;;;;;13.30;63.31;102100.19;5051109;27;96759;-69
2022/09/21 02:36:29;;;;;;;5.75;2.72;;;;;;;13.52;62.38;102106.69;5052124;27;98972;-70
2022/09/21 02:39:04;;;;;;;3.78;2.22;;;;;;;13.52;62.52;102106.69;5051334;27;98763;-68
2022/09/21 02:41:37;;;;;;;3.08;2.08;;;;;;;13.21;63.02;102116.31;5054310;27;96758;-69
2022/09/21 02:44:09;;;;;;;3.35;2.08;;;;;;;13.46;62.61;102112.13;5051469;27;96844;-68
2022/09/21 02:46:40;;;;;;;3.17;2.40;;;;;;;13.56;62.21;102113.66;5052039;27;98295;-68
2022/09/21 02:49:10;;;;;;;2.78;1.95;;;;;;;13.51;62.34;102116.44;5053280;27;98581;-68
2022/09/21 02:51:46;;;;;;;3.20;2.50;;;;;;;13.56;62.17;102113.66;5054573;27;97117;-68
2022/09/21 02:54:14;;;;;;;3.65;2.35;;;;;;;13.42;62.89;102119.31;5053584;27;97070;-68
2022/09/21 02:56:43;;;;;;;4.57;2.28;;;;;;;13.50;62.49;102119.13;5054489;27;97763;-68
2022/09/21 02:59:10;;;;;;;3.45;1.92;;;;;;;13.49;62.63;102122.69;5053023;27;99617;-68
2022/09/21 03:01:40;;;;;;;4.50;2.20;;;;;;;13.18;63.65;102125.25;5053721;27;98861;-68
2022/09/21 03:04:06;;;;;;;3.03;2.33;;;;;;;12.99;64.19;102132.75;5052763;27;96808;-69
2022/09/21 03:06:34;;;;;;;5.18;2.17;;;;;;;13.13;63.97;102133.31;5052524;27;99031;-68
2022/09/21 03:09:03;;;;;;;2.53;2.30;;;;;;;13.27;63.87;102135.63;5053646;27;99210;-69
2022/09/21 03:11:34;;;;;;;2.88;1.95;;;;;;;13.36;63.58;102132.75;5052771;27;96798;-68
2022/09/21 03:14:04;;;;;;;6.20;1.92;;;;;;;13.25;63.64;102140.13;5052767;27;96864;-67
2022/09/21 03:16:30;;;;;;;4.43;2.28;;;;;;;13.01;64.38;102138.88;5052911;27;99103;-68
2022/09/21 03:19:01;;;;;;;5.53;2.50;;;;;;;12.75;65.17;102146.56;5048985;27;101056;-68
2022/09/21 03:21:27;;;;;;;2.80;2.03;;;;;;;12.69;66.04;102142.28;5052950;27;96854;-68
2022/09/21 03:23:54;;;;;;;3.10;2.00;;;;;;;12.89;65.14;102138.28;5053855;27;96960;-68
2022/09/21 03:26:21;;;;;;;5.05;2.47;;;;;;;13.03;64.38;102139.72;5053262;27;101504;-68
2022/09/21 03:28:51;;;;;;;7.20;2.10;;;;;;;13.02;64.51;102142.41;5053190;27;98796;-69
2022/09/21 03:31:19;;;;;;;4.25;2.45;;;;;;;13.06;64.26;102136.97;5053108;27;96741;-69
2022/09/21 03:33:46;;;;;;;6.47;2.53;;;;;;;13.27;63.76;102142.72;5054028;27;97420;-68
2022/09/21 03:36:15;;;;;;;3.05;2.30;;;;;;;13.27;63.56;102142.72;5053323;27;99729;-69
2022/09/21 03:38:41;;;;;;;5.82;2.20;;;;;;;13.25;63.66;102145.44;5053005;27;98826;-69
2022/09/21 03:41:10;;;;;;;5.40;2.38;;;;;;;13.25;63.98;102141.91;5052374;27;97042;-69
2022/09/21 03:43:36;;;;;;;4.95;2.20;;;;;;;13.31;64.01;102144.41;5050893;27;97093;-68
2022/09/21 03:46:03;;;;;;;3.25;2.10;;;;;;;13.26;63.57;102151.63;5052861;27;99104;-68
2022/09/21 03:48:31;;;;;;;4.50;2.17;;;;;;;13.33;63.44;102137.25;5050783;27;99428;-69
2022/09/21 03:50:59;;;;;;;4.43;2.42;;;;;;;13.23;63.41;102141.06;5053663;27;96790;-68
2022/09/21 03:53:27;;;;;;;3.08;1.88;;;;;;;13.34;63.22;102144.31;5051417;27;96841;-68
2022/09/21 03:55:53;;;;;;;3.45;2.38;;;;;;;13.36;63.20;102143.38;5056346;27;97992;-69
2022/09/21 03:58:23;;;;;;;4.00;2.30;;;;;;;13.44;62.54;102146.72;5056080;27;98767;-68
2022/09/21 04:00:49;;;;;;;5.72;2.38;;;;;;;13.18;63.68;102142.97;5057095;27;96824;-68
2022/09/21 04:03:16;;;;;;;2.55;2.20;;;;;;;13.16;63.58;102145.66;5055167;27;97117;-67
2022/09/21 04:05:42;;;;;;;5.10;2.58;;;;;;;13.21;63.46;102153.50;5055768;27;99021;-67
2022/09/21 04:08:08;;;;;;;3.88;2.25;;;;;;;13.16;63.28;102151.84;5056599;27;97552;-68
2022/09/21 04:10:36;;;;;;;3.80;2.42;;;;;;;13.12;63.68;102150.16;5055487;27;99075;-68
2022/09/21 04:13:05;;;;;;;3.28;2.22;;;;;;;13.06;63.56;102160.03;5056502;27;96886;-69
2022/09/21 04:15:31;;;;;;;4.60;2.50;;;;;;;13.16;63.66;102161.56;5056345;27;99046;-69
2022/09/21 04:18:01;;;;;;;5.40;2.10;;;;;;;13.10;63.63;102161.69;5054346;27;99363;-69
2022/09/21 04:20:33;;;;;;;4.22;2.20;;;;;;;13.26;63.08;102162.25;5052042;27;96816;-68
2022/09/21 04:22:59;;;;;;;4.25;2.22;;;;;;;13.32;62.81;102155.00;5056147;27;96693;-68
2022/09/21 04:25:26;;;;;;;5.32;2.30;;;;;;;13.06;63.31;102160.88;5055732;27;99263;-69
2022/09/21 04:27:54;;;;;;;5.65;2.50;;;;;;;13.44;62.34;102161.78;5054859;27;98811;-69
2022/09/21 04:30:26;;;;;;;5.00;2.72;;;;;;;13.40;62.12;102160.97;5056081;27;96773;-69
2022/09/21 04:32:52;;;;;;;5.80;2.50;;;;;;;13.53;61.71;102157.09;5055119;27;97401;-69
2022/09/21 04:35:19;;;;;;;7.00;2.78;;;;;;;13.65;61.47;102155.94;5055303;27;99933;-69
2022/09/21 04:37:45;;;;;;;3.67;2.50;;;;;;;13.44;61.94;102157.34;5056325;27;99305;-68
2022/09/21 04:40:11;;;;;;;4.18;2.38;;;;;;;13.41;61.79;102151.22;5056728;27;96707;-68
2022/09/21 04:42:38;;;;;;;2.83;2.38;;;;;;;13.19;62.42;102156.19;5055518;27;97023;-69
2022/09/21 04:45:06;;;;;;;3.33;2.30;;;;;;;12.98;63.10;102157.53;5056318;27;99374;-68
2022/09/21 04:47:33;;;;;;;6.20;2.45;;;;;;;12.87;63.36;102161.31;5056431;27;97945;-69
2022/09/21 04:50:02;;;;;;;5.07;2.30;;;;;;;12.82;63.80;102161.44;5056905;27;97869;-68
2022/09/21 04:52:29;;;;;;;4.93;2.20;;;;;;;12.83;64.17;102160.53;5055749;27;96901;-70
2022/09/21 04:54:57;;;;;;;5.80;2.55;;;;;;;12.93;64.06;102167.38;5055733;27;98128;-68
2022/09/21 04:57:26;;;;;;;6.53;2.55;;;;;;;12.92;63.32;102168.31;5053064;27;99290;-67
2022/09/21 04:59:55;;;;;;;7.63;2.72;;;;;;;13.13;63.11;102165.16;5057212;27;96860;-68
2022/09/21 05:02:23;;;;;;;3.08;2.28;;;;;;;12.97;63.45;102161.09;5055741;27;97357;-68
2022/09/21 05:04:49;;;;;;;5.65;2.22;;;;;;;13.03;63.24;102168.91;5045929;27;100687;-67
2022/09/21 05:07:16;;;;;;;6.97;2.35;;;;;;;13.01;62.97;102176.03;5053258;27;99027;-68
2022/09/21 05:12:27;;;;;;;7.95;2.75;;;;;;;13.11;63.11;102180.22;5052166;27;96832;-69
2022/09/21 05:14:59;;;;;;;7.35;2.40;;;;;;;13.27;62.71;102177.22;5051995;27;98865;-69
2022/09/21 05:17:28;;;;;;;2.90;2.35;;;;;;;13.19;63.15;102180.09;5054313;27;99671;-69
2022/09/21 05:19:57;;;;;;;4.82;2.45;;;;;;;13.18;63.14;102185.44;5052686;27;96847;-68
2022/09/21 05:22:24;;;;;;;3.63;2.50;;;;;;;13.09;63.27;102195.31;5054505;27;97140;-68
2022/09/21 05:24:52;;;;;;;8.50;2.70;;;;;;;13.21;63.44;102190.66;5052827;27;98953;-69
2022/09/21 05:27:18;;;;;;;5.97;2.38;;;;;;;13.32;62.79;102193.94;5055984;27;99040;-68
2022/09/21 05:29:45;;;;;;;5.13;2.40;;;;;;;13.40;62.48;102194.59;5054525;27;96820;-68
2022/09/21 05:32:19;;;;;;;8.68;2.70;;;;;;;13.24;63.34;102195.91;5053298;27;97154;-68
2022/09/21 05:34:57;;;;;;;5.45;2.55;;;;;;;13.52;62.28;102199.66;5049528;27;99396;-69
2022/09/21 05:37:48;;;;;;;7.40;2.75;;;;;;;13.51;62.38;102198.78;5053703;27;99319;-68
2022/09/21 05:40:15;;;;;;;3.97;2.38;;;;;;;13.55;62.43;102205.75;5051543;27;97214;-68
2022/09/21 05:42:42;;;;;;;6.00;2.30;;;;;;;13.63;62.24;102205.56;5052284;27;97272;-70
2022/09/21 05:45:15;;;;;;;5.85;2.97;;;;;;;13.76;61.68;102203.47;5052233;27;98875;-69
2022/09/21 05:47:50;;;;;;;9.50;3.30;;;;;;;13.90;61.60;102203.97;5055566;27;101654;-69
2022/09/21 05:50:30;;;;;;;7.03;2.97;;;;;;;13.79;61.11;102208.69;5056155;27;96894;-68
2022/09/21 05:53:05;;;;;;;6.05;3.47;;;;;;;13.70;61.38;102212.47;5054043;27;97272;-68
2022/09/21 05:55:43;;;;;;;5.95;2.88;;;;;;;13.82;61.49;102203.28;5055306;27;99499;-68
2022/09/21 05:58:22;;;;;;;6.53;2.65;;;;;;;13.77;61.74;102207.88;5055666;27;100523;-69
2022/09/21 06:01:00;;;;;;;7.00;3.13;;;;;;;13.86;61.35;102208.47;5053756;27;96815;-68
2022/09/21 06:03:33;;;;;;;9.32;2.92;;;;;;;13.89;61.34;102207.53;5053529;27;96708;-68
2022/09/21 06:06:02;;;;;;;6.68;3.10;;;;;;;13.87;61.24;102210.22;5049513;27;99026;-68
2022/09/21 06:08:28;;;;;;;7.40;3.08;;;;;;;14.02;61.10;102213.41;5052671;27;98384;-68
2022/09/21 06:10:56;;;;;;;7.82;2.92;;;;;;;13.93;61.44;102210.06;5056981;27;98254;-68
2022/09/21 06:13:25;;;;;;;12.05;3.60;;;;;;;14.09;61.34;102201.69;5053888;27;96889;-69
2022/09/21 06:15:57;;;;;;;5.28;2.85;;;;;;;13.99;62.07;102203.72;5052849;27;98955;-68
2022/09/21 06:18:23;;;;;;;12.07;3.72;;;;;;;14.00;61.93;102207.25;5053372;27;98967;-69
2022/09/21 06:20:50;;;;;;;6.22;3.53;;;;;;;14.32;60.63;102204.59;5053512;27;96878;-68
2022/09/21 06:23:19;;;;;;;5.30;3.25;;;;;;;13.98;61.19;102209.09;5053668;27;96811;-69
2022/09/21 06:25:54;;;;;;;9.90;3.25;;;;;;;14.30;61.10;102203.78;5052662;27;98208;-72
2022/09/21 06:28:20;;;;;;;6.25;3.30;;;;;;;14.41;60.80;102216.78;5048702;27;98752;-69
2022/09/21 06:30:51;;;;;;;10.90;4.38;;;;;;;14.68;59.82;102214.22;5053448;27;97352;-68
2022/09/21 06:33:20;;;;;;;10.85;3.72;;;;;;;14.90;58.93;102226.91;5048294;27;96653;-68
2022/09/21 06:35:52;;;;;;;8.30;3.63;;;;;;;14.75;59.32;102220.22;5051854;27;98999;-69
2022/09/21 06:38:22;;;;;;;8.07;3.60;;;;;;;14.82;59.47;102219.13;5048701;27;98813;-69
2022/09/21 06:40:49;;;;;;;7.95;3.30;;;;;;;14.97;58.94;102223.09;5053514;27;96788;-69
2022/09/21 06:43:16;;;;;;;6.85;3.58;;;;;;;14.93;58.59;102235.66;5048867;27;96796;-68
2022/09/21 06:45:52;;;;;;;9.55;3.97;;;;;;;15.08;58.58;102229.00;5052793;27;99179;-69
2022/09/21 06:48:18;;;;;;;11.48;4.38;;;;;;;14.85;59.04;102235.00;5048984;27;98681;-68
2022/09/21 06:50:47;;;;;;;9.45;3.88;;;;;;;14.84;59.60;102229.72;5053261;27;96811;-68
2022/09/21 06:53:16;;;;;;;9.98;4.15;;;;;;;15.02;58.39;102232.72;5053464;27;97013;-69
2022/09/21 06:55:44;;;;;;;9.13;4.20;;;;;;;15.00;58.30;102239.88;5052696;27;100190;-68
2022/09/21 06:58:11;;;;;;;14.05;4.57;;;;;;;15.13;58.46;102238.56;5052864;27;99008;-69
2022/09/21 07:00:37;;;;;;;12.05;4.13;;;;;;;15.32;57.61;102238.88;5052841;27;96860;-70
2022/09/21 07:03:04;;;;;;;9.98;4.13;;;;;;;15.62;56.71;102236.19;5053055;27;97352;-68
2022/09/21 07:05:31;;;;;;;10.85;4.10;;;;;;;15.80;56.23;102246.22;5052409;27;99031;-69
2022/09/21 07:07:58;;;;;;;8.27;3.80;;;;;;;15.80;56.36;102241.78;5052591;27;98928;-70
2022/09/21 07:10:27;;;;;;;5.97;3.35;;;;;;;15.70;55.87;102245.66;5053217;27;97081;-69
2022/09/21 07:12:55;;;;;;;8.00;3.47;;;;;;;15.35;56.89;102252.09;5052654;27;97460;-68
2022/09/21 07:15:22;;;;;;;8.15;3.33;;;;;;;15.20;57.73;102247.25;5051992;27;101517;-70
2022/09/21 07:17:48;;;;;;;6.10;3.72;;;;;;;15.25;57.60;102242.66;5053040;27;101276;-68
2022/09/21 07:20:18;;;;;;;5.07;2.80;;;;;;;15.46;57.61;102251.75;5046309;27;96718;-68
2022/09/21 07:22:44;;;;;;;6.03;3.38;;;;;;;15.64;57.19;102255.63;5050735;27;98039;-69
2022/09/21 07:25:12;;;;;;;6.53;3.67;;;;;;;16.05;56.27;102256.94;5051722;27;99107;-69
2022/09/21 07:27:38;;;;;;;7.05;3.70;;;;;;;16.09;55.76;102250.56;5050708;27;99333;-69
2022/09/21 07:30:08;;;;;;;6.43;3.88;;;;;;;16.11;56.43;102249.59;5052563;27;96783;-69
2022/09/21 07:32:35;;;;;;;7.03;3.63;;;;;;;16.33;55.88;102255.03;5052213;27;96964;-68
2022/09/21 07:35:02;;;;;;;6.82;3.40;;;;;;;16.29;55.72;102248.94;5052170;27;99331;-69
2022/09/21 07:37:31;;;;;;;6.18;2.90;;;;;;;15.95;56.00;102248.34;5051647;27;99109;-69
2022/09/21 07:39:58;;;;;;;5.75;3.30;;;;;;;15.91;56.58;102252.94;5052238;27;96856;-69
2022/09/21 07:42:26;;;;;;;7.13;3.65;;;;;;;15.76;57.40;102244.56;5047223;27;96943;-69
2022/09/21 07:44:53;;;;;;;4.20;3.08;;;;;;;15.85;57.28;102247.81;5050189;27;99787;-69
2022/09/21 07:47:21;;;;;;;15.32;3.33;;;;;;;15.51;58.55;102249.81;5048741;27;98706;-68
2022/09/21 07:49:47;;;;;;;5.55;3.30;;;;;;;15.79;58.10;102244.47;5048099;27;96740;-70
2022/09/21 07:52:14;;;;;;;4.20;3.08;;;;;;;15.97;57.64;102250.97;5052229;27;96884;-69
2022/09/21 07:54:41;;;;;;;6.80;2.70;;;;;;;16.44;56.23;102249.31;5051390;27;98898;-69
2022/09/21 07:59:57;;;;;;;8.25;2.78;;;;;;;16.38;56.23;102252.22;5050886;27;96753;-70
2022/09/21 08:02:25;;;;;;;13.07;3.90;;;;;;;16.38;56.55;102257.53;5042028;27;97282;-70
2022/09/21 08:04:52;;;;;;;7.07;3.42;;;;;;;16.51;55.93;102261.50;5037037;27;98013;-69
2022/09/21 08:07:19;;;;;;;5.70;3.65;;;;;;;16.39;56.50;102259.28;5050407;27;101644;-69
2022/09/21 08:09:48;;;;;;;7.25;3.40;;;;;;;16.39;56.49;102259.28;5048329;27;96783;-68
2022/09/21 08:12:19;;;;;;;7.95;3.58;;;;;;;16.48;56.29;102265.16;5047034;27;97048;-68
2022/09/21 08:14:48;;;;;;;8.25;3.30;;;;;;;16.84;55.63;102260.31;5044233;27;99477;-70
2022/09/21 08:17:15;;;;;;;6.20;3.40;;;;;;;17.03;54.76;102264.00;5048328;27;98870;-69
2022/09/21 08:19:43;;;;;;;11.88;4.35;;;;;;;16.96;54.88;102259.84;5045210;27;97208;-68
2022/09/21 08:22:10;;;;;;;6.65;3.67;;;;;;;17.24;53.84;102266.78;5047018;27;97414;-68
2022/09/21 08:24:37;;;;;;;8.85;3.95;;;;;;;17.28;54.61;102273.72;5045859;27;99395;-68
2022/09/21 08:27:04;;;;;;;10.45;4.80;;;;;;;17.75;53.05;102270.06;5047309;27;99289;-70
2022/09/21 08:29:35;;;;;;;11.32;4.80;;;;;;;17.59;52.91;102268.91;5047350;27;97182;-69
2022/09/21 08:32:03;;;;;;;14.23;5.38;;;;;;;17.75;52.92;102269.19;5046893;27;96771;-67
2022/09/21 08:34:32;;;;;;;9.40;5.03;;;;;;;18.02;52.42;102268.03;5042743;27;99347;-69
2022/09/21 08:37:03;;;;;;;9.82;4.70;;;;;;;17.79;53.13;102271.66;5044526;27;99632;-68
2022/09/21 08:39:30;;;;;;;11.98;4.25;;;;;;;18.28;51.72;102273.13;5049772;27;96735;-69
2022/09/21 08:42:14;;;;;;;12.25;4.35;;;;;;;18.21;51.61;102268.97;5047128;27;97266;-71
2022/09/21 08:44:45;;;;;;;11.00;3.88;;;;;;;17.76;52.64;102269.13;5046797;27;99298;-68
2022/09/21 08:47:15;;;;;;;7.82;4.28;;;;;;;17.88;52.83;102270.41;5047122;27;98774;-69
2022/09/21 08:49:50;;;;;;;8.25;3.97;;;;;;;17.76;53.27;102273.59;5048861;27;96736;-68
2022/09/21 08:52:26;;;;;;;7.05;3.60;;;;;;;18.00;52.98;102271.69;5052866;27;98071;-69
2022/09/21 08:54:59;;;;;;;13.15;6.82;;;;;;;18.17;52.49;102278.09;5045748;27;99353;-69
2022/09/21 08:57:30;;;;;;;9.77;3.30;;;;;;;18.03;51.96;102275.13;5051340;27;100236;-69
2022/09/21 09:00:00;;;;;;;5.97;2.63;;;;;;;18.16;52.33;102276.34;5050676;27;96763;-70
2022/09/21 09:03:10;;;;;;;7.03;3.25;;;;;;;18.13;51.93;102280.94;5052845;27;96887;-68
2022/09/21 09:05:49;;;;;;;5.40;2.85;;;;;;;18.40;51.90;102281.56;5023155;27;99077;-68
2022/09/21 09:08:29;;;;;;;6.68;2.85;;;;;;;18.47;51.39;102275.88;5045473;27;99048;-69
2022/09/21 09:11:06;;;;;;;3.30;2.70;;;;;;;17.90;52.79;102285.47;5049115;27;98023;-69
2022/09/21 09:13:47;;;;;;;;;;;;;;;17.72;53.41;102280.88;5050227;27;97196;-69
2022/09/21 09:16:23;;;;;;;8.32;2.78;;;;;;;17.63;53.71;102278.59;5043201;27;98949;-69
2022/09/21 09:18:54;;;;;;;8.05;3.13;;;;;;;17.26;54.84;102280.97;5044599;27;98051;-68
2022/09/21 09:21:25;;;;;;;5.10;2.70;;;;;;;16.86;55.98;102279.81;5046733;27;96771;-69
2022/09/21 09:23:59;;;;;;;5.28;2.63;;;;;;;17.05;55.39;102278.19;5053796;27;97279;-68
2022/09/21 09:26:30;;;;;;;5.65;2.85;;;;;;;16.74;56.70;102275.78;5052340;27;99839;-70
2022/09/21 09:29:01;;;;;;;8.38;2.72;;;;;;;16.95;56.30;102282.13;5051709;27;97743;-68
2022/09/21 09:31:31;;;;;;;6.88;2.80;;;;;;;17.36;55.56;102287.66;5051447;27;96843;-69
2022/09/21 09:34:09;;;;;;;9.73;3.17;;;;;;;17.93;53.73;102277.31;5051630;27;97298;-69
2022/09/21 09:36:43;;;;;;;5.18;2.88;;;;;;;18.01;53.43;102286.81;5047701;27;99274;-69
2022/09/21 09:39:17;;;;;;;6.15;3.25;;;;;;;18.40;52.20;102278.88;5050440;27;97206;-69
2022/09/21 09:42:10;;;;;;;7.80;3.53;;;;;;;18.75;51.88;102280.03;5046225;27;97224;-68
2022/09/21 09:45:13;;;;;;;4.63;3.25;;;;;;;18.98;50.92;102278.03;5046371;27;96675;-67
2022/09/21 09:47:50;;;;;;;8.40;2.90;;;;;;;19.37;49.89;102285.13;5004989;27;98314;-69
2022/09/21 09:50:20;;;;;;;6.20;2.42;;;;;;;19.38;50.00;102277.00;5045810;27;98811;-69
2022/09/21 09:52:53;;;;;;;5.70;2.22;;;;;;;19.39;49.94;102284.13;5046592;27;96774;-69
2022/09/21 09:55:31;;;;;;;4.00;2.03;;;;;;;19.47;50.31;102284.66;5045788;27;97132;-70
2022/09/21 09:57:58;;;;;;;4.43;1.77;;;;;;;19.37;50.06;102283.31;5044820;27;99729;-69
2022/09/21 10:00:26;;;;;;;8.27;1.80;;;;;;;19.68;49.88;102274.69;5048681;27;98937;-69
2022/09/21 10:02:54;;;;;;;7.15;1.70;;;;;;;19.58;50.18;102277.88;5051038;27;97234;-69
2022/09/21 10:05:25;;;;;;;3.20;1.88;;;;;;;19.63;50.37;102279.41;5048119;27;96923;-70
2022/09/21 10:07:52;;;;;;;2.72;1.30;;;;;;;19.73;49.90;102271.78;5044473;27;98354;-69
2022/09/21 10:10:31;;;;;;;2.38;1.10;;;;;;;19.47;49.35;102279.28;5048879;27;98930;-69
2022/09/21 10:13:10;;;;;;;2.10;1.10;;;;;;;19.80;48.51;102275.91;5050596;27;97333;-70
2022/09/21 10:15:44;;;;;;;1.80;0.90;;;;;;;19.91;48.60;102273.53;5049430;27;97284;-70
2022/09/21 10:18:20;;;;;;;4.45;1.55;;;;;;;19.83;48.67;102267.69;5049796;27;97734;-69
2022/09/21 10:21:02;;;;;;;2.70;1.02;;;;;;;20.24;46.98;102262.88;5045033;27;100455;-69
2022/09/21 10:23:32;;;;;;;4.82;0.90;;;;;;;20.39;46.11;102266.63;5046036;27;97239;-70
2022/09/21 10:26:07;;;;;;;2.53;1.58;;;;;;;20.95;45.60;102266.25;5046816;27;96887;-70
2022/09/21 10:28:37;;;;;;;1.10;0.98;;;;;;;21.33;44.91;102266.88;5050212;27;99455;-70
2022/09/21 10:31:17;;;;;;;0.90;0.50;;;;;;;21.57;42.74;102265.47;5049665;27;98804;-69
2022/09/21 10:33:49;;;;;;;1.70;0.70;;;;;;;21.80;42.39;102262.28;5048541;27;96786;-69
2022/09/21 10:36:33;;;;;;;1.48;0.63;;;;;;;21.87;41.42;102262.78;5047369;27;97090;-70
2022/09/21 10:39:18;;;;;;;1.77;0.80;;;;;;;21.76;41.39;102262.56;5046600;27;102078;-69
2022/09/21 10:41:54;;;;;;;4.70;0.60;;;;;;;21.33;42.47;102256.13;5046395;27;98822;-68
2022/09/21 10:44:27;;;;;;;1.53;0.67;;;;;;;21.28;41.57;102252.78;5049903;27;97474;-69
2022/09/21 10:46:55;;;;;;;2.33;0.55;;;;;;;21.29;41.40;102251.84;5047324;27;96712;-68
2022/09/21 10:49:24;;;;;;;1.92;0.60;;;;;;;21.67;41.29;102249.63;5051424;27;99006;-70
2022/09/21 10:51:53;;;;;;;2.22;1.00;;;;;;;22.08;39.94;102244.53;5050723;27;98844;-69
2022/09/21 10:54:24;;;;;;;1.30;0.80;;;;;;;22.35;39.09;102236.63;5049611;27;96664;-69
2022/09/21 10:57:00;;;;;;;0.82;0.40;;;;;;;21.92;38.92;102238.31;5050330;27;96826;-69
2022/09/21 10:59:29;;;;;;;3.20;0.40;;;;;;;22.16;37.95;102237.75;5044644;27;99921;-69
2022/09/21 11:01:57;;;;;;;2.40;0.45;;;;;;;22.01;38.18;102235.09;5046139;27;99122;-69
2022/09/21 11:04:32;;;;;;;3.08;0.45;;;;;;;21.74;37.29;102233.06;5048398;27;97253;-72
2022/09/21 11:07:04;;;;;;;0.47;0.30;;;;;;;21.87;37.00;102241.25;5047342;27;97179;-69
2022/09/21 11:09:37;;;;;;;9.95;5.78;;;;;;;21.75;37.30;102234.78;5049480;27;99384;-71
2022/09/21 11:12:24;;;;;;;5.13;3.75;;;;;;;21.60;37.91;102237.50;5051190;27;98959;-70
2022/09/21 11:14:56;;;;;;;1.52;0.52;;;;;;;21.65;37.91;102236.31;5048938;27;96703;-69
2022/09/21 11:17:34;;;;;;;1.50;0.80;;;;;;;21.12;39.21;102235.78;5049654;27;97297;-69
2022/09/21 11:20:12;;;;;;;5.38;0.90;;;;;;;20.92;39.78;102227.00;5048103;27;99461;-69
2022/09/21 11:22:54;;;;;;;3.83;0.70;;;;;;;21.16;40.38;102227.47;5044823;27;97270;-69
2022/09/21 11:25:30;;;;;;;1.58;0.40;;;;;;;21.42;40.44;102228.69;5044979;27;96773;-69
2022/09/21 11:28:04;;;;;;;3.78;0.70;;;;;;;21.63;40.17;102230.13;5049163;27;96890;-69
2022/09/21 11:30:41;;;;;;;1.40;0.60;;;;;;;21.42;40.27;102234.06;5048864;27;98944;-69
2022/09/21 11:33:24;;;;;;;1.15;0.80;;;;;;;21.24;40.81;102229.75;5047717;27;98949;-69
2022/09/21 11:36:02;;;;;;;1.08;0.50;;;;;;;21.06;38.60;102237.88;5043681;27;96805;-69
2022/09/21 11:38:39;;;;;;;0.60;0.57;;;;;;;21.28;38.06;102233.97;5045196;27;96745;-69
2022/09/21 11:41:21;;;;;;;2.20;0.47;;;;;;;21.60;36.87;102230.28;5048279;27;97926;-69
2022/09/21 11:44:07;;;;;;;1.83;0.50;;;;;;;21.65;37.51;102233.59;5047901;27;99539;-70
2022/09/21 11:46:40;;;;;;;0.40;0.40;;;;;;;21.68;38.44;102224.47;5043872;27;96782;-69
2022/09/21 11:49:32;;;;;;;3.03;0.80;;;;;;;21.58;39.33;102226.84;5047627;27;97001;-68